sensor_id;sensor_type;location;lat;lon;timestamp;P1;durP1;ratioP1;P2;durP2;ratioP2
33987;SDS011;37428;53.580;-1.666;2023-03-31T00:01:35;37.50;;;8.73;;
33987;SDS011;37428;53.580;-1.666;2023-03-31T00:04:42;24.08;;;7.03;;
33987;SDS011;37428;53.580;-1.666;2023-03-31T00:07:45;34.47;;;8.90;;
33987;SDS011;37428;53.580;-1.666;2023-03-31T00:10:47;46.55;;;15.05;;
33987;SDS011;37428;53.580;-1.666;2023-03-31T00:13:49;44.75;;;15.50;;
33987;SDS011;37428;53.580;-1.666;2023-03-31T00:16:51;39.78;;;14.98;;
33987;SDS011;37428;53.580;-1.666;2023-03-31T00:19:55;31.55;;;6.53;;
33987;SDS011;37428;53.580;-1.666;2023-03-31T00:22:59;39.70;;;17.35;;
33987;SDS011;37428;53.580;-1.666;2023-03-31T00:26:01;23.92;;;5.65;;
33987;SDS011;37428;53.580;-1.666;2023-03-31T00:29:04;21.45;;;6.00;;
33987;SDS011;37428;53.580;-1.666;2023-03-31T00:32:07;38.58;;;12.30;;
33987;SDS011;37428;53.580;-1.666;2023-03-31T00:35:11;52.28;;;21.35;;
33987;SDS011;37428;53.580;-1.666;2023-03-31T00:38:13;21.70;;;6.97;;
33987;SDS011;37428;53.580;-1.666;2023-03-31T00:41:15;23.23;;;5.82;;
33987;SDS011;37428;53.580;-1.666;2023-03-31T00:44:17;19.65;;;6.70;;
33987;SDS011;37428;53.580;-1.666;2023-03-31T00:47:21;19.55;;;4.57;;
33987;SDS011;37428;53.580;-1.666;2023-03-31T00:53:29;23.98;;;5.10;;
33987;SDS011;37428;53.580;-1.666;2023-03-31T00:56:35;25.63;;;6.20;;
33987;SDS011;37428;53.580;-1.666;2023-03-31T00:59:41;29.60;;;5.95;;
33987;SDS011;37428;53.580;-1.666;2023-03-31T01:02:47;27.40;;;6.30;;
33987;SDS011;37428;53.580;-1.666;2023-03-31T01:05:56;26.08;;;6.53;;
33987;SDS011;37428;53.580;-1.666;2023-03-31T01:09:02;14.18;;;4.68;;
33987;SDS011;37428;53.580;-1.666;2023-03-31T01:12:06;23.50;;;5.15;;
33987;SDS011;37428;53.580;-1.666;2023-03-31T01:15:10;25.98;;;4.95;;
33987;SDS011;37428;53.580;-1.666;2023-03-31T01:21:27;23.48;;;5.32;;
33987;SDS011;37428;53.580;-1.666;2023-03-31T01:25:05;19.90;;;4.93;;
33987;SDS011;37428;53.580;-1.666;2023-03-31T01:28:30;12.75;;;5.68;;
33987;SDS011;37428;53.580;-1.666;2023-03-31T01:31:53;18.88;;;4.35;;
33987;SDS011;37428;53.580;-1.666;2023-03-31T01:35:23;16.33;;;5.20;;
33987;SDS011;37428;53.580;-1.666;2023-03-31T01:39:02;16.25;;;4.53;;
33987;SDS011;37428;53.580;-1.666;2023-03-31T01:42:21;22.95;;;4.72;;
33987;SDS011;37428;53.580;-1.666;2023-03-31T01:45:35;23.27;;;5.80;;
33987;SDS011;37428;53.580;-1.666;2023-03-31T01:51:50;17.92;;;5.50;;
33987;SDS011;37428;53.580;-1.666;2023-03-31T01:55:00;17.75;;;5.53;;
33987;SDS011;37428;53.580;-1.666;2023-03-31T01:58:10;16.00;;;4.75;;
33987;SDS011;37428;53.580;-1.666;2023-03-31T02:01:16;16.00;;;4.63;;
33987;SDS011;37428;53.580;-1.666;2023-03-31T02:04:23;14.95;;;5.50;;
33987;SDS011;37428;53.580;-1.666;2023-03-31T02:07:30;8.60;;;3.45;;
33987;SDS011;37428;53.580;-1.666;2023-03-31T02:10:36;14.50;;;4.43;;
33987;SDS011;37428;53.580;-1.666;2023-03-31T02:13:42;20.38;;;4.57;;
33987;SDS011;37428;53.580;-1.666;2023-03-31T02:16:48;17.42;;;4.97;;
33987;SDS011;37428;53.580;-1.666;2023-03-31T02:19:58;19.80;;;5.20;;
33987;SDS011;37428;53.580;-1.666;2023-03-31T02:23:05;22.17;;;6.35;;
33987;SDS011;37428;53.580;-1.666;2023-03-31T02:26:10;20.17;;;5.85;;
33987;SDS011;37428;53.580;-1.666;2023-03-31T02:29:17;16.70;;;4.35;;
33987;SDS011;37428;53.580;-1.666;2023-03-31T02:32:20;22.75;;;4.88;;
33987;SDS011;37428;53.580;-1.666;2023-03-31T02:35:25;13.65;;;4.38;;
33987;SDS011;37428;53.580;-1.666;2023-03-31T02:38:27;19.58;;;5.97;;
33987;SDS011;37428;53.580;-1.666;2023-03-31T02:41:30;15.90;;;4.93;;
33987;SDS011;37428;53.580;-1.666;2023-03-31T02:47:37;15.32;;;3.88;;
33987;SDS011;37428;53.580;-1.666;2023-03-31T02:50:44;15.90;;;5.35;;
33987;SDS011;37428;53.580;-1.666;2023-03-31T02:54:15;15.63;;;5.10;;
33987;SDS011;37428;53.580;-1.666;2023-03-31T02:57:43;22.30;;;6.75;;
33987;SDS011;37428;53.580;-1.666;2023-03-31T03:01:12;20.65;;;5.53;;
33987;SDS011;37428;53.580;-1.666;2023-03-31T03:04:35;17.58;;;6.30;;
33987;SDS011;37428;53.580;-1.666;2023-03-31T03:07:45;28.85;;;7.40;;
33987;SDS011;37428;53.580;-1.666;2023-03-31T03:10:56;23.75;;;6.15;;
33987;SDS011;37428;53.580;-1.666;2023-03-31T03:14:06;22.80;;;6.55;;
33987;SDS011;37428;53.580;-1.666;2023-03-31T03:17:17;17.33;;;6.25;;
33987;SDS011;37428;53.580;-1.666;2023-03-31T03:20:23;27.63;;;7.45;;
33987;SDS011;37428;53.580;-1.666;2023-03-31T03:23:26;21.70;;;7.88;;
33987;SDS011;37428;53.580;-1.666;2023-03-31T03:26:28;15.02;;;5.72;;
33987;SDS011;37428;53.580;-1.666;2023-03-31T03:29:34;14.48;;;6.22;;
33987;SDS011;37428;53.580;-1.666;2023-03-31T03:32:37;26.65;;;9.73;;
33987;SDS011;37428;53.580;-1.666;2023-03-31T03:35:40;28.67;;;11.10;;
33987;SDS011;37428;53.580;-1.666;2023-03-31T03:38:42;25.33;;;9.70;;
33987;SDS011;37428;53.580;-1.666;2023-03-31T03:41:44;32.97;;;10.55;;
33987;SDS011;37428;53.580;-1.666;2023-03-31T03:44:47;26.42;;;9.50;;
33987;SDS011;37428;53.580;-1.666;2023-03-31T03:47:50;27.35;;;12.98;;
33987;SDS011;37428;53.580;-1.666;2023-03-31T03:50:52;23.65;;;9.80;;
33987;SDS011;37428;53.580;-1.666;2023-03-31T03:53:55;22.95;;;9.73;;
33987;SDS011;37428;53.580;-1.666;2023-03-31T03:56:57;20.45;;;11.90;;
33987;SDS011;37428;53.580;-1.666;2023-03-31T03:59:59;26.17;;;12.07;;
33987;SDS011;37428;53.580;-1.666;2023-03-31T04:03:02;23.10;;;13.18;;
33987;SDS011;37428;53.580;-1.666;2023-03-31T04:06:04;12.43;;;7.95;;
33987;SDS011;37428;53.580;-1.666;2023-03-31T04:09:07;31.70;;;11.15;;
33987;SDS011;37428;53.580;-1.666;2023-03-31T04:12:09;27.25;;;13.80;;
33987;SDS011;37428;53.580;-1.666;2023-03-31T04:15:11;25.40;;;11.15;;
33987;SDS011;37428;53.580;-1.666;2023-03-31T04:18:15;20.45;;;10.60;;
33987;SDS011;37428;53.580;-1.666;2023-03-31T04:21:22;21.60;;;12.30;;
33987;SDS011;37428;53.580;-1.666;2023-03-31T04:24:24;20.85;;;10.18;;
33987;SDS011;37428;53.580;-1.666;2023-03-31T04:27:29;13.68;;;8.77;;
33987;SDS011;37428;53.580;-1.666;2023-03-31T04:30:32;15.73;;;7.05;;
33987;SDS011;37428;53.580;-1.666;2023-03-31T04:33:40;12.05;;;5.85;;
33987;SDS011;37428;53.580;-1.666;2023-03-31T04:36:45;11.23;;;6.72;;
33987;SDS011;37428;53.580;-1.666;2023-03-31T04:39:48;7.10;;;4.05;;
33987;SDS011;37428;53.580;-1.666;2023-03-31T04:42:53;7.78;;;4.32;;
33987;SDS011;37428;53.580;-1.666;2023-03-31T04:45:55;9.55;;;5.15;;
33987;SDS011;37428;53.580;-1.666;2023-03-31T04:48:59;7.65;;;5.85;;
33987;SDS011;37428;53.580;-1.666;2023-03-31T04:52:02;8.18;;;5.47;;
33987;SDS011;37428;53.580;-1.666;2023-03-31T04:55:04;10.95;;;9.35;;
33987;SDS011;37428;53.580;-1.666;2023-03-31T04:58:07;11.95;;;7.15;;
33987;SDS011;37428;53.580;-1.666;2023-03-31T05:01:10;14.40;;;10.18;;
33987;SDS011;37428;53.580;-1.666;2023-03-31T05:04:18;12.45;;;11.15;;
33987;SDS011;37428;53.580;-1.666;2023-03-31T05:07:21;20.70;;;12.85;;
33987;SDS011;37428;53.580;-1.666;2023-03-31T05:10:23;22.40;;;13.50;;
33987;SDS011;37428;53.580;-1.666;2023-03-31T05:13:25;29.75;;;14.80;;
33987;SDS011;37428;53.580;-1.666;2023-03-31T05:16:27;19.83;;;12.20;;
33987;SDS011;37428;53.580;-1.666;2023-03-31T05:19:31;10.40;;;8.60;;
33987;SDS011;37428;53.580;-1.666;2023-03-31T05:22:34;17.85;;;11.23;;
33987;SDS011;37428;53.580;-1.666;2023-03-31T05:25:36;27.58;;;12.27;;
33987;SDS011;37428;53.580;-1.666;2023-03-31T05:28:38;18.75;;;13.20;;
33987;SDS011;37428;53.580;-1.666;2023-03-31T05:31:42;25.63;;;11.73;;
33987;SDS011;37428;53.580;-1.666;2023-03-31T05:34:45;29.88;;;10.98;;
33987;SDS011;37428;53.580;-1.666;2023-03-31T05:37:48;18.35;;;10.77;;
33987;SDS011;37428;53.580;-1.666;2023-03-31T05:40:51;11.57;;;8.88;;
33987;SDS011;37428;53.580;-1.666;2023-03-31T05:43:53;14.80;;;9.05;;
33987;SDS011;37428;53.580;-1.666;2023-03-31T05:46:55;15.20;;;9.23;;
33987;SDS011;37428;53.580;-1.666;2023-03-31T05:49:58;16.13;;;9.27;;
33987;SDS011;37428;53.580;-1.666;2023-03-31T05:53:01;106.47;;;13.85;;
33987;SDS011;37428;53.580;-1.666;2023-03-31T05:56:04;63.47;;;13.40;;
33987;SDS011;37428;53.580;-1.666;2023-03-31T05:59:07;193.75;;;20.75;;
33987;SDS011;37428;53.580;-1.666;2023-03-31T06:02:10;168.20;;;16.50;;
33987;SDS011;37428;53.580;-1.666;2023-03-31T06:05:15;40.53;;;12.30;;
33987;SDS011;37428;53.580;-1.666;2023-03-31T06:08:17;102.18;;;14.45;;
33987;SDS011;37428;53.580;-1.666;2023-03-31T06:11:20;394.90;;;23.50;;
33987;SDS011;37428;53.580;-1.666;2023-03-31T06:14:22;338.20;;;22.30;;
33987;SDS011;37428;53.580;-1.666;2023-03-31T06:17:25;362.80;;;23.60;;
33987;SDS011;37428;53.580;-1.666;2023-03-31T06:20:28;93.68;;;12.35;;
33987;SDS011;37428;53.580;-1.666;2023-03-31T06:23:31;328.98;;;21.55;;
33987;SDS011;37428;53.580;-1.666;2023-03-31T06:26:33;267.85;;;18.13;;
33987;SDS011;37428;53.580;-1.666;2023-03-31T06:29:35;245.23;;;15.55;;
33987;SDS011;37428;53.580;-1.666;2023-03-31T06:32:38;517.65;;;24.00;;
33987;SDS011;37428;53.580;-1.666;2023-03-31T06:35:41;365.70;;;18.42;;
33987;SDS011;37428;53.580;-1.666;2023-03-31T06:38:43;534.03;;;27.55;;
33987;SDS011;37428;53.580;-1.666;2023-03-31T06:41:46;114.75;;;13.82;;
33987;SDS011;37428;53.580;-1.666;2023-03-31T06:44:48;115.95;;;13.52;;
33987;SDS011;37428;53.580;-1.666;2023-03-31T06:47:50;50.60;;;11.18;;
33987;SDS011;37428;53.580;-1.666;2023-03-31T06:50:54;18.02;;;9.73;;
33987;SDS011;37428;53.580;-1.666;2023-03-31T06:53:57;162.95;;;17.08;;
33987;SDS011;37428;53.580;-1.666;2023-03-31T06:56:59;66.53;;;14.57;;
33987;SDS011;37428;53.580;-1.666;2023-03-31T07:00:01;251.45;;;23.60;;
33987;SDS011;37428;53.580;-1.666;2023-03-31T07:03:04;248.63;;;19.42;;
33987;SDS011;37428;53.580;-1.666;2023-03-31T07:06:09;80.18;;;14.55;;
33987;SDS011;37428;53.580;-1.666;2023-03-31T07:09:11;211.27;;;21.17;;
33987;SDS011;37428;53.580;-1.666;2023-03-31T07:12:13;232.93;;;17.67;;
33987;SDS011;37428;53.580;-1.666;2023-03-31T07:15:15;91.22;;;11.13;;
33987;SDS011;37428;53.580;-1.666;2023-03-31T07:18:18;96.68;;;11.60;;
33987;SDS011;37428;53.580;-1.666;2023-03-31T07:21:22;167.05;;;14.80;;
33987;SDS011;37428;53.580;-1.666;2023-03-31T07:24:24;137.57;;;15.70;;
33987;SDS011;37428;53.580;-1.666;2023-03-31T07:27:26;52.53;;;9.52;;
33987;SDS011;37428;53.580;-1.666;2023-03-31T07:30:28;137.75;;;13.05;;
33987;SDS011;37428;53.580;-1.666;2023-03-31T07:33:30;73.03;;;9.85;;
33987;SDS011;37428;53.580;-1.666;2023-03-31T07:36:34;105.07;;;10.07;;
33987;SDS011;37428;53.580;-1.666;2023-03-31T07:39:36;7.57;;;5.07;;
33987;SDS011;37428;53.580;-1.666;2023-03-31T07:42:38;108.22;;;7.60;;
33987;SDS011;37428;53.580;-1.666;2023-03-31T07:48:42;25.63;;;5.53;;
33987;SDS011;37428;53.580;-1.666;2023-03-31T07:51:47;102.00;;;8.50;;
33987;SDS011;37428;53.580;-1.666;2023-03-31T07:54:49;73.47;;;9.18;;
33987;SDS011;37428;53.580;-1.666;2023-03-31T07:57:51;587.97;;;36.83;;
33987;SDS011;37428;53.580;-1.666;2023-03-31T08:00:53;216.40;;;17.63;;
33987;SDS011;37428;53.580;-1.666;2023-03-31T08:03:55;558.22;;;38.63;;
33987;SDS011;37428;53.580;-1.666;2023-03-31T08:06:59;688.63;;;40.13;;
33987;SDS011;37428;53.580;-1.666;2023-03-31T08:10:02;536.35;;;35.65;;
33987;SDS011;37428;53.580;-1.666;2023-03-31T08:13:05;146.77;;;24.15;;
33987;SDS011;37428;53.580;-1.666;2023-03-31T08:16:07;128.43;;;22.55;;
33987;SDS011;37428;53.580;-1.666;2023-03-31T08:19:09;24.77;;;16.23;;
33987;SDS011;37428;53.580;-1.666;2023-03-31T08:22:12;42.45;;;20.98;;
33987;SDS011;37428;53.580;-1.666;2023-03-31T08:25:14;105.47;;;20.58;;
33987;SDS011;37428;53.580;-1.666;2023-03-31T08:31:20;75.25;;;18.17;;
33987;SDS011;37428;53.580;-1.666;2023-03-31T08:34:23;18.42;;;12.18;;
33987;SDS011;37428;53.580;-1.666;2023-03-31T08:37:27;21.27;;;11.57;;
33987;SDS011;37428;53.580;-1.666;2023-03-31T08:40:31;24.85;;;12.07;;
33987;SDS011;37428;53.580;-1.666;2023-03-31T08:43:33;22.48;;;10.25;;
33987;SDS011;37428;53.580;-1.666;2023-03-31T08:46:40;17.17;;;10.70;;
33987;SDS011;37428;53.580;-1.666;2023-03-31T08:49:44;14.48;;;10.98;;
33987;SDS011;37428;53.580;-1.666;2023-03-31T08:52:54;148.63;;;14.75;;
33987;SDS011;37428;53.580;-1.666;2023-03-31T08:59:12;95.72;;;8.60;;
33987;SDS011;37428;53.580;-1.666;2023-03-31T09:02:28;33.80;;;8.18;;
33987;SDS011;37428;53.580;-1.666;2023-03-31T09:05:45;5.18;;;4.57;;
33987;SDS011;37428;53.580;-1.666;2023-03-31T09:08:57;10.30;;;5.38;;
33987;SDS011;37428;53.580;-1.666;2023-03-31T09:12:04;23.58;;;6.20;;
33987;SDS011;37428;53.580;-1.666;2023-03-31T09:15:11;11.75;;;5.82;;
33987;SDS011;37428;53.580;-1.666;2023-03-31T09:18:16;28.65;;;7.63;;
33987;SDS011;37428;53.580;-1.666;2023-03-31T09:21:27;13.50;;;6.72;;
33987;SDS011;37428;53.580;-1.666;2023-03-31T09:24:34;25.10;;;7.82;;
33987;SDS011;37428;53.580;-1.666;2023-03-31T09:27:43;12.40;;;6.55;;
33987;SDS011;37428;53.580;-1.666;2023-03-31T09:30:47;16.58;;;7.53;;
33987;SDS011;37428;53.580;-1.666;2023-03-31T09:33:50;10.77;;;7.22;;
33987;SDS011;37428;53.580;-1.666;2023-03-31T09:36:55;26.48;;;7.30;;
33987;SDS011;37428;53.580;-1.666;2023-03-31T09:39:59;17.85;;;7.80;;
33987;SDS011;37428;53.580;-1.666;2023-03-31T09:43:07;11.90;;;7.25;;
33987;SDS011;37428;53.580;-1.666;2023-03-31T09:46:18;11.93;;;7.63;;
33987;SDS011;37428;53.580;-1.666;2023-03-31T09:49:26;9.85;;;7.03;;
33987;SDS011;37428;53.580;-1.666;2023-03-31T09:52:32;24.60;;;8.95;;
33987;SDS011;37428;53.580;-1.666;2023-03-31T09:55:42;6.00;;;5.05;;
33987;SDS011;37428;53.580;-1.666;2023-03-31T09:58:46;6.82;;;6.07;;
33987;SDS011;37428;53.580;-1.666;2023-03-31T10:01:49;8.77;;;7.38;;
33987;SDS011;37428;53.580;-1.666;2023-03-31T10:04:53;6.38;;;5.68;;
33987;SDS011;37428;53.580;-1.666;2023-03-31T10:11:19;6.05;;;4.53;;
33987;SDS011;37428;53.580;-1.666;2023-03-31T10:14:26;5.43;;;4.93;;
33987;SDS011;37428;53.580;-1.666;2023-03-31T10:17:33;3.90;;;3.22;;
33987;SDS011;37428;53.580;-1.666;2023-03-31T10:20:48;5.30;;;4.22;;
33987;SDS011;37428;53.580;-1.666;2023-03-31T10:23:52;7.32;;;4.20;;
33987;SDS011;37428;53.580;-1.666;2023-03-31T10:26:56;5.40;;;3.35;;
33987;SDS011;37428;53.580;-1.666;2023-03-31T10:29:59;5.32;;;3.70;;
33987;SDS011;37428;53.580;-1.666;2023-03-31T10:33:05;5.97;;;4.40;;
33987;SDS011;37428;53.580;-1.666;2023-03-31T10:36:15;7.18;;;3.88;;
33987;SDS011;37428;53.580;-1.666;2023-03-31T10:39:24;3.67;;;2.85;;
33987;SDS011;37428;53.580;-1.666;2023-03-31T10:42:32;4.50;;;2.50;;
33987;SDS011;37428;53.580;-1.666;2023-03-31T10:45:36;3.67;;;2.55;;
33987;SDS011;37428;53.580;-1.666;2023-03-31T10:48:41;2.53;;;2.33;;
33987;SDS011;37428;53.580;-1.666;2023-03-31T10:51:48;3.33;;;2.92;;
33987;SDS011;37428;53.580;-1.666;2023-03-31T10:54:53;3.45;;;2.53;;
33987;SDS011;37428;53.580;-1.666;2023-03-31T10:58:01;4.03;;;2.60;;
33987;SDS011;37428;53.580;-1.666;2023-03-31T11:01:12;3.97;;;2.30;;
33987;SDS011;37428;53.580;-1.666;2023-03-31T11:04:25;2.30;;;2.00;;
33987;SDS011;37428;53.580;-1.666;2023-03-31T11:07:48;2.15;;;1.70;;
33987;SDS011;37428;53.580;-1.666;2023-03-31T11:11:05;2.28;;;1.75;;
33987;SDS011;37428;53.580;-1.666;2023-03-31T11:14:19;4.55;;;2.70;;
33987;SDS011;37428;53.580;-1.666;2023-03-31T11:20:35;4.10;;;3.00;;
33987;SDS011;37428;53.580;-1.666;2023-03-31T11:23:52;10.35;;;4.22;;
33987;SDS011;37428;53.580;-1.666;2023-03-31T11:27:04;7.55;;;3.88;;
33987;SDS011;37428;53.580;-1.666;2023-03-31T11:30:23;5.47;;;3.92;;
33987;SDS011;37428;53.580;-1.666;2023-03-31T11:37:13;7.97;;;5.18;;
33987;SDS011;37428;53.580;-1.666;2023-03-31T11:40:30;6.72;;;4.13;;
33987;SDS011;37428;53.580;-1.666;2023-03-31T11:43:41;12.90;;;6.80;;
33987;SDS011;37428;53.580;-1.666;2023-03-31T11:46:48;11.35;;;7.93;;
33987;SDS011;37428;53.580;-1.666;2023-03-31T11:49:53;16.83;;;9.05;;
33987;SDS011;37428;53.580;-1.666;2023-03-31T11:52:59;16.98;;;9.20;;
33987;SDS011;37428;53.580;-1.666;2023-03-31T11:56:03;18.23;;;9.07;;
33987;SDS011;37428;53.580;-1.666;2023-03-31T11:59:08;15.30;;;8.15;;
33987;SDS011;37428;53.580;-1.666;2023-03-31T12:02:16;24.30;;;10.75;;
33987;SDS011;37428;53.580;-1.666;2023-03-31T12:05:24;23.92;;;11.85;;
33987;SDS011;37428;53.580;-1.666;2023-03-31T12:08:29;27.30;;;13.10;;
33987;SDS011;37428;53.580;-1.666;2023-03-31T12:11:37;28.75;;;12.73;;
33987;SDS011;37428;53.580;-1.666;2023-03-31T12:14:45;24.73;;;11.27;;
33987;SDS011;37428;53.580;-1.666;2023-03-31T12:17:56;25.45;;;12.00;;
33987;SDS011;37428;53.580;-1.666;2023-03-31T12:21:02;34.17;;;11.80;;
33987;SDS011;37428;53.580;-1.666;2023-03-31T12:24:05;20.55;;;10.55;;
33987;SDS011;37428;53.580;-1.666;2023-03-31T12:27:13;18.55;;;9.63;;
33987;SDS011;37428;53.580;-1.666;2023-03-31T12:30:21;23.10;;;11.63;;
33987;SDS011;37428;53.580;-1.666;2023-03-31T12:33:32;23.58;;;11.80;;
33987;SDS011;37428;53.580;-1.666;2023-03-31T12:36:42;23.98;;;12.55;;
33987;SDS011;37428;53.580;-1.666;2023-03-31T12:39:56;24.30;;;13.07;;
33987;SDS011;37428;53.580;-1.666;2023-03-31T12:46:20;27.50;;;10.93;;
33987;SDS011;37428;53.580;-1.666;2023-03-31T12:49:42;26.27;;;11.15;;
33987;SDS011;37428;53.580;-1.666;2023-03-31T12:52:59;15.77;;;9.10;;
33987;SDS011;37428;53.580;-1.666;2023-03-31T12:56:10;19.13;;;8.77;;
33987;SDS011;37428;53.580;-1.666;2023-03-31T12:59:16;19.83;;;10.15;;
33987;SDS011;37428;53.580;-1.666;2023-03-31T13:02:25;18.03;;;8.97;;
33987;SDS011;37428;53.580;-1.666;2023-03-31T13:05:44;22.55;;;9.90;;
33987;SDS011;37428;53.580;-1.666;2023-03-31T13:08:51;21.10;;;9.95;;
33987;SDS011;37428;53.580;-1.666;2023-03-31T13:11:55;21.00;;;10.35;;
33987;SDS011;37428;53.580;-1.666;2023-03-31T13:14:57;19.48;;;9.73;;
33987;SDS011;37428;53.580;-1.666;2023-03-31T13:18:04;23.95;;;12.05;;
33987;SDS011;37428;53.580;-1.666;2023-03-31T13:21:09;17.58;;;9.63;;
33987;SDS011;37428;53.580;-1.666;2023-03-31T13:24:11;14.82;;;9.48;;
33987;SDS011;37428;53.580;-1.666;2023-03-31T13:27:26;13.90;;;8.73;;
33987;SDS011;37428;53.580;-1.666;2023-03-31T13:30:48;19.40;;;10.93;;
33987;SDS011;37428;53.580;-1.666;2023-03-31T13:33:53;12.02;;;7.78;;
33987;SDS011;37428;53.580;-1.666;2023-03-31T13:37:02;19.30;;;9.57;;
33987;SDS011;37428;53.580;-1.666;2023-03-31T13:44:05;17.90;;;10.93;;
33987;SDS011;37428;53.580;-1.666;2023-03-31T13:51:09;13.67;;;10.57;;
33987;SDS011;37428;53.580;-1.666;2023-03-31T13:54:37;12.40;;;10.82;;
33987;SDS011;37428;53.580;-1.666;2023-03-31T14:01:35;14.07;;;9.10;;
33987;SDS011;37428;53.580;-1.666;2023-03-31T14:05:03;15.05;;;9.27;;
33987;SDS011;37428;53.580;-1.666;2023-03-31T14:08:26;8.20;;;6.54;;
33987;SDS011;37428;53.580;-1.666;2023-03-31T14:11:47;9.15;;;7.28;;
33987;SDS011;37428;53.580;-1.666;2023-03-31T14:14:51;9.48;;;7.05;;
33987;SDS011;37428;53.580;-1.666;2023-03-31T14:17:54;11.82;;;8.00;;
33987;SDS011;37428;53.580;-1.666;2023-03-31T14:24:21;11.60;;;10.43;;
33987;SDS011;37428;53.580;-1.666;2023-03-31T14:27:40;12.37;;;10.60;;
33987;SDS011;37428;53.580;-1.666;2023-03-31T14:30:52;9.05;;;8.10;;
33987;SDS011;37428;53.580;-1.666;2023-03-31T14:34:09;9.50;;;7.07;;
33987;SDS011;37428;53.580;-1.666;2023-03-31T14:37:23;9.52;;;7.18;;
33987;SDS011;37428;53.580;-1.666;2023-03-31T14:40:27;13.65;;;7.78;;
33987;SDS011;37428;53.580;-1.666;2023-03-31T14:43:31;9.85;;;7.93;;
33987;SDS011;37428;53.580;-1.666;2023-03-31T14:46:35;12.02;;;7.05;;
33987;SDS011;37428;53.580;-1.666;2023-03-31T14:49:39;10.00;;;7.13;;
33987;SDS011;37428;53.580;-1.666;2023-03-31T14:52:45;10.75;;;6.65;;
33987;SDS011;37428;53.580;-1.666;2023-03-31T14:55:48;11.35;;;7.57;;
33987;SDS011;37428;53.580;-1.666;2023-03-31T14:58:52;11.80;;;8.38;;
33987;SDS011;37428;53.580;-1.666;2023-03-31T15:01:55;10.95;;;7.10;;
33987;SDS011;37428;53.580;-1.666;2023-03-31T15:05:00;8.95;;;7.90;;
33987;SDS011;37428;53.580;-1.666;2023-03-31T15:08:07;11.63;;;8.90;;
33987;SDS011;37428;53.580;-1.666;2023-03-31T15:11:15;10.77;;;9.77;;
33987;SDS011;37428;53.580;-1.666;2023-03-31T15:14:21;12.85;;;9.43;;
33987;SDS011;37428;53.580;-1.666;2023-03-31T15:17:27;11.05;;;8.30;;
33987;SDS011;37428;53.580;-1.666;2023-03-31T15:20:34;8.68;;;7.05;;
33987;SDS011;37428;53.580;-1.666;2023-03-31T15:23:39;10.27;;;6.85;;
33987;SDS011;37428;53.580;-1.666;2023-03-31T15:26:42;8.38;;;7.10;;
33987;SDS011;37428;53.580;-1.666;2023-03-31T15:29:50;9.50;;;7.18;;
33987;SDS011;37428;53.580;-1.666;2023-03-31T15:32:55;9.70;;;5.95;;
33987;SDS011;37428;53.580;-1.666;2023-03-31T15:35:58;9.95;;;6.38;;
33987;SDS011;37428;53.580;-1.666;2023-03-31T15:39:01;9.77;;;7.30;;
33987;SDS011;37428;53.580;-1.666;2023-03-31T15:42:04;11.93;;;8.43;;
33987;SDS011;37428;53.580;-1.666;2023-03-31T15:45:23;9.02;;;8.13;;
33987;SDS011;37428;53.580;-1.666;2023-03-31T15:48:47;11.02;;;8.02;;
33987;SDS011;37428;53.580;-1.666;2023-03-31T15:51:53;10.88;;;7.55;;
33987;SDS011;37428;53.580;-1.666;2023-03-31T15:54:56;8.20;;;6.03;;
33987;SDS011;37428;53.580;-1.666;2023-03-31T15:57:59;8.10;;;5.72;;
33987;SDS011;37428;53.580;-1.666;2023-03-31T16:01:03;11.38;;;6.28;;
33987;SDS011;37428;53.580;-1.666;2023-03-31T16:04:07;6.95;;;5.47;;
33987;SDS011;37428;53.580;-1.666;2023-03-31T16:07:13;10.10;;;5.45;;
33987;SDS011;37428;53.580;-1.666;2023-03-31T16:10:20;5.40;;;4.90;;
33987;SDS011;37428;53.580;-1.666;2023-03-31T16:13:23;8.38;;;5.53;;
33987;SDS011;37428;53.580;-1.666;2023-03-31T16:16:27;7.10;;;4.85;;
33987;SDS011;37428;53.580;-1.666;2023-03-31T16:19:31;7.70;;;5.05;;
33987;SDS011;37428;53.580;-1.666;2023-03-31T16:22:42;5.28;;;4.35;;
33987;SDS011;37428;53.580;-1.666;2023-03-31T16:25:47;7.47;;;5.32;;
33987;SDS011;37428;53.580;-1.666;2023-03-31T16:28:49;6.22;;;4.70;;
33987;SDS011;37428;53.580;-1.666;2023-03-31T16:32:06;7.30;;;4.68;;
33987;SDS011;37428;53.580;-1.666;2023-03-31T16:35:11;6.22;;;5.45;;
33987;SDS011;37428;53.580;-1.666;2023-03-31T16:38:13;7.30;;;4.78;;
33987;SDS011;37428;53.580;-1.666;2023-03-31T16:41:16;7.50;;;4.75;;
33987;SDS011;37428;53.580;-1.666;2023-03-31T16:44:18;4.78;;;4.25;;
33987;SDS011;37428;53.580;-1.666;2023-03-31T16:47:22;5.43;;;4.93;;
33987;SDS011;37428;53.580;-1.666;2023-03-31T16:50:24;6.70;;;4.97;;
33987;SDS011;37428;53.580;-1.666;2023-03-31T16:53:27;6.22;;;4.55;;
33987;SDS011;37428;53.580;-1.666;2023-03-31T16:56:30;8.00;;;6.05;;
33987;SDS011;37428;53.580;-1.666;2023-03-31T16:59:32;6.50;;;5.68;;
33987;SDS011;37428;53.580;-1.666;2023-03-31T17:02:35;13.07;;;9.35;;
33987;SDS011;37428;53.580;-1.666;2023-03-31T17:05:38;18.27;;;13.38;;
33987;SDS011;37428;53.580;-1.666;2023-03-31T17:08:41;30.95;;;20.85;;
33987;SDS011;37428;53.580;-1.666;2023-03-31T17:11:43;28.17;;;21.88;;
33987;SDS011;37428;53.580;-1.666;2023-03-31T17:14:48;36.88;;;28.52;;
33987;SDS011;37428;53.580;-1.666;2023-03-31T17:17:51;32.00;;;21.63;;
33987;SDS011;37428;53.580;-1.666;2023-03-31T17:20:53;17.70;;;12.13;;
33987;SDS011;37428;53.580;-1.666;2023-03-31T17:23:55;17.13;;;12.85;;
33987;SDS011;37428;53.580;-1.666;2023-03-31T17:26:58;14.35;;;9.57;;
33987;SDS011;37428;53.580;-1.666;2023-03-31T17:30:00;12.80;;;9.27;;
33987;SDS011;37428;53.580;-1.666;2023-03-31T17:33:04;14.05;;;10.43;;
33987;SDS011;37428;53.580;-1.666;2023-03-31T17:36:06;18.90;;;16.63;;
33987;SDS011;37428;53.580;-1.666;2023-03-31T17:42:11;14.50;;;11.20;;
33987;SDS011;37428;53.580;-1.666;2023-03-31T17:45:14;8.45;;;7.53;;
33987;SDS011;37428;53.580;-1.666;2023-03-31T17:51:19;12.93;;;8.55;;
33987;SDS011;37428;53.580;-1.666;2023-03-31T17:54:22;12.60;;;8.77;;
33987;SDS011;37428;53.580;-1.666;2023-03-31T17:57:24;12.77;;;8.15;;
33987;SDS011;37428;53.580;-1.666;2023-03-31T18:00:26;16.23;;;9.93;;
33987;SDS011;37428;53.580;-1.666;2023-03-31T18:03:30;14.13;;;9.32;;
33987;SDS011;37428;53.580;-1.666;2023-03-31T18:06:32;17.42;;;10.02;;
33987;SDS011;37428;53.580;-1.666;2023-03-31T18:09:34;13.18;;;9.43;;
33987;SDS011;37428;53.580;-1.666;2023-03-31T18:12:36;14.25;;;8.18;;
33987;SDS011;37428;53.580;-1.666;2023-03-31T18:15:44;15.98;;;9.02;;
33987;SDS011;37428;53.580;-1.666;2023-03-31T18:18:48;13.70;;;7.95;;
33987;SDS011;37428;53.580;-1.666;2023-03-31T18:21:51;15.98;;;10.40;;
33987;SDS011;37428;53.580;-1.666;2023-03-31T18:24:53;17.00;;;10.18;;
33987;SDS011;37428;53.580;-1.666;2023-03-31T18:27:55;15.23;;;11.02;;
33987;SDS011;37428;53.580;-1.666;2023-03-31T18:31:00;12.55;;;10.70;;
33987;SDS011;37428;53.580;-1.666;2023-03-31T18:34:04;15.57;;;11.73;;
33987;SDS011;37428;53.580;-1.666;2023-03-31T18:37:06;15.80;;;11.18;;
33987;SDS011;37428;53.580;-1.666;2023-03-31T18:40:09;14.75;;;9.38;;
33987;SDS011;37428;53.580;-1.666;2023-03-31T18:43:14;12.50;;;10.70;;
33987;SDS011;37428;53.580;-1.666;2023-03-31T18:46:17;11.50;;;8.77;;
33987;SDS011;37428;53.580;-1.666;2023-03-31T18:49:21;9.18;;;7.38;;
33987;SDS011;37428;53.580;-1.666;2023-03-31T18:52:23;14.52;;;10.38;;
33987;SDS011;37428;53.580;-1.666;2023-03-31T18:55:25;10.65;;;9.13;;
33987;SDS011;37428;53.580;-1.666;2023-03-31T19:01:30;17.70;;;10.57;;
33987;SDS011;37428;53.580;-1.666;2023-03-31T19:04:35;14.50;;;11.88;;